sensor_id;sensor_type;location;lat;lon;timestamp;pressure;altitude;pressure_sealevel;temperature;humidity
58295;BME280;45705;55.592;37.460;2023-12-20T00:01:37;97346.00;;;3.48;100.00
58295;BME280;45705;55.592;37.460;2023-12-20T00:04:03;97352.78;;;3.68;100.00
58295;BME280;45705;55.592;37.460;2023-12-20T00:06:29;97356.25;;;3.69;100.00
58295;BME280;45705;55.592;37.460;2023-12-20T00:08:55;97343.19;;;3.85;100.00
58295;BME280;45705;55.592;37.460;2023-12-20T00:11:21;97352.41;;;3.92;100.00
58295;BME280;45705;55.592;37.460;2023-12-20T00:13:47;97340.81;;;3.83;100.00
58295;BME280;45705;55.592;37.460;2023-12-20T00:16:12;97355.31;;;4.05;100.00
58295;BME280;45705;55.592;37.460;2023-12-20T00:18:38;97362.47;;;4.09;100.00
58295;BME280;45705;55.592;37.460;2023-12-20T00:21:04;97361.03;;;4.03;100.00
58295;BME280;45705;55.592;37.460;2023-12-20T00:23:29;97359.59;;;4.06;100.00
58295;BME280;45705;55.592;37.460;2023-12-20T00:25:55;97363.38;;;4.05;100.00
58295;BME280;45705;55.592;37.460;2023-12-20T00:28:21;97347.63;;;3.81;100.00
58295;BME280;45705;55.592;37.460;2023-12-20T00:30:47;97352.72;;;3.91;100.00
58295;BME280;45705;55.592;37.460;2023-12-20T00:33:13;97357.28;;;4.13;100.00
58295;BME280;45705;55.592;37.460;2023-12-20T00:35:39;97350.88;;;4.00;100.00
58295;BME280;45705;55.592;37.460;2023-12-20T00:38:05;97360.22;;;4.03;100.00
58295;BME280;45705;55.592;37.460;2023-12-20T00:40:32;97356.38;;;3.95;100.00
58295;BME280;45705;55.592;37.460;2023-12-20T00:42:58;97367.22;;;4.12;100.00
58295;BME280;45705;55.592;37.460;2023-12-20T00:45:24;97367.78;;;4.01;100.00
58295;BME280;45705;55.592;37.460;2023-12-20T00:47:50;97378.13;;;4.07;100.00
58295;BME280;45705;55.592;37.460;2023-12-20T00:50:16;97372.38;;;3.69;100.00
58295;BME280;45705;55.592;37.460;2023-12-20T00:52:41;97365.75;;;3.75;100.00
58295;BME280;45705;55.592;37.460;2023-12-20T00:55:07;97363.66;;;3.94;100.00
58295;BME280;45705;55.592;37.460;2023-12-20T00:57:34;97360.56;;;4.10;100.00
58295;BME280;45705;55.592;37.460;2023-12-20T00:59:59;97354.56;;;4.13;100.00
58295;BME280;45705;55.592;37.460;2023-12-20T01:02:25;97354.72;;;4.17;100.00
58295;BME280;45705;55.592;37.460;2023-12-20T01:04:51;97343.81;;;4.13;100.00
58295;BME280;45705;55.592;37.460;2023-12-20T01:07:17;97340.22;;;3.86;100.00
58295;BME280;45705;55.592;37.460;2023-12-20T01:09:43;97340.91;;;4.01;100.00
58295;BME280;45705;55.592;37.460;2023-12-20T01:12:08;97350.09;;;4.00;100.00
58295;BME280;45705;55.592;37.460;2023-12-20T01:14:34;97342.50;;;4.02;100.00
58295;BME280;45705;55.592;37.460;2023-12-20T01:17:02;97331.28;;;4.08;100.00
58295;BME280;45705;55.592;37.460;2023-12-20T01:19:27;97333.00;;;4.04;100.00
58295;BME280;45705;55.592;37.460;2023-12-20T01:21:54;97334.91;;;4.04;100.00
58295;BME280;45705;55.592;37.460;2023-12-20T01:24:20;97340.13;;;4.00;100.00
58295;BME280;45705;55.592;37.460;2023-12-20T01:26:47;97340.91;;;4.01;100.00
58295;BME280;45705;55.592;37.460;2023-12-20T01:29:12;97338.44;;;4.13;100.00
58295;BME280;45705;55.592;37.460;2023-12-20T01:31:40;97331.13;;;3.73;100.00
58295;BME280;45705;55.592;37.460;2023-12-20T01:34:08;97338.97;;;3.92;100.00
58295;BME280;45705;55.592;37.460;2023-12-20T01:36:34;97342.94;;;3.95;100.00
58295;BME280;45705;55.592;37.460;2023-12-20T01:39:00;97333.59;;;3.92;100.00
58295;BME280;45705;55.592;37.460;2023-12-20T01:41:25;97346.72;;;3.63;100.00
58295;BME280;45705;55.592;37.460;2023-12-20T01:43:51;97335.97;;;3.40;100.00
58295;BME280;45705;55.592;37.460;2023-12-20T01:46:20;97334.88;;;3.41;100.00
58295;BME280;45705;55.592;37.460;2023-12-20T01:48:47;97312.22;;;3.56;100.00
58295;BME280;45705;55.592;37.460;2023-12-20T01:51:13;97300.78;;;3.50;100.00
58295;BME280;45705;55.592;37.460;2023-12-20T01:53:39;97318.84;;;3.59;100.00
58295;BME280;45705;55.592;37.460;2023-12-20T01:56:06;97319.75;;;3.45;100.00
58295;BME280;45705;55.592;37.460;2023-12-20T01:58:32;97309.00;;;3.45;100.00
58295;BME280;45705;55.592;37.460;2023-12-20T02:00:58;97309.72;;;3.60;100.00
58295;BME280;45705;55.592;37.460;2023-12-20T02:03:24;97296.16;;;3.65;100.00
58295;BME280;45705;55.592;37.460;2023-12-20T02:05:50;97261.03;;;3.30;100.00
58295;BME280;45705;55.592;37.460;2023-12-20T02:08:16;97290.41;;;3.58;100.00
58295;BME280;45705;55.592;37.460;2023-12-20T02:10:42;97292.72;;;3.73;100.00
58295;BME280;45705;55.592;37.460;2023-12-20T02:13:08;97291.94;;;3.72;100.00
58295;BME280;45705;55.592;37.460;2023-12-20T02:15:34;97285.59;;;3.46;100.00
58295;BME280;45705;55.592;37.460;2023-12-20T02:18:03;97282.22;;;3.63;100.00
58295;BME280;45705;55.592;37.460;2023-12-20T02:20:48;97284.69;;;3.50;100.00
58295;BME280;45705;55.592;37.460;2023-12-20T02:23:14;97286.56;;;3.50;100.00
58295;BME280;45705;55.592;37.460;2023-12-20T02:25:40;97287.94;;;3.70;100.00
58295;BME280;45705;55.592;37.460;2023-12-20T02:28:06;97286.38;;;3.69;100.00
58295;BME280;45705;55.592;37.460;2023-12-20T02:30:32;97282.97;;;3.54;100.00
58295;BME280;45705;55.592;37.460;2023-12-20T02:32:59;97279.44;;;3.45;100.00
58295;BME280;45705;55.592;37.460;2023-12-20T02:35:27;97292.97;;;3.63;100.00
58295;BME280;45705;55.592;37.460;2023-12-20T02:37:53;97286.53;;;3.72;100.00
58295;BME280;45705;55.592;37.460;2023-12-20T02:40:18;97274.38;;;3.75;100.00
58295;BME280;45705;55.592;37.460;2023-12-20T02:42:44;97275.94;;;3.76;100.00
58295;BME280;45705;55.592;37.460;2023-12-20T02:45:10;97268.94;;;3.66;100.00
58295;BME280;45705;55.592;37.460;2023-12-20T02:47:36;97289.38;;;3.76;100.00
58295;BME280;45705;55.592;37.460;2023-12-20T02:50:02;97289.53;;;3.71;100.00
58295;BME280;45705;55.592;37.460;2023-12-20T02:52:30;97264.50;;;3.62;100.00
58295;BME280;45705;55.592;37.460;2023-12-20T02:54:55;97291.81;;;3.86;100.00
58295;BME280;45705;55.592;37.460;2023-12-20T02:57:21;97300.56;;;3.61;100.00
58295;BME280;45705;55.592;37.460;2023-12-20T02:59:47;97293.09;;;3.58;100.00
58295;BME280;45705;55.592;37.460;2023-12-20T03:02:12;97294.34;;;3.51;100.00
58295;BME280;45705;55.592;37.460;2023-12-20T03:04:38;97280.63;;;3.62;100.00
58295;BME280;45705;55.592;37.460;2023-12-20T03:07:04;97272.44;;;3.67;100.00
58295;BME280;45705;55.592;37.460;2023-12-20T03:09:30;97271.97;;;3.65;100.00
58295;BME280;45705;55.592;37.460;2023-12-20T03:11:55;97281.00;;;3.69;100.00
58295;BME280;45705;55.592;37.460;2023-12-20T03:14:21;97260.50;;;3.50;100.00
58295;BME280;45705;55.592;37.460;2023-12-20T03:16:49;97269.84;;;3.84;100.00
58295;BME280;45705;55.592;37.460;2023-12-20T03:19:16;97271.22;;;3.82;100.00
58295;BME280;45705;55.592;37.460;2023-12-20T03:21:42;97274.72;;;3.82;100.00
58295;BME280;45705;55.592;37.460;2023-12-20T03:24:07;97269.88;;;3.62;100.00
58295;BME280;45705;55.592;37.460;2023-12-20T03:26:33;97274.66;;;3.65;100.00
58295;BME280;45705;55.592;37.460;2023-12-20T03:28:59;97280.03;;;3.65;100.00
58295;BME280;45705;55.592;37.460;2023-12-20T03:31:25;97283.22;;;3.75;100.00
58295;BME280;45705;55.592;37.460;2023-12-20T03:33:51;97289.72;;;3.43;100.00
58295;BME280;45705;55.592;37.460;2023-12-20T03:36:20;97283.63;;;3.60;100.00
58295;BME280;45705;55.592;37.460;2023-12-20T03:38:46;97283.44;;;3.57;100.00
58295;BME280;45705;55.592;37.460;2023-12-20T03:41:11;97283.13;;;3.58;100.00
58295;BME280;45705;55.592;37.460;2023-12-20T03:43:37;97266.22;;;3.58;100.00
58295;BME280;45705;55.592;37.460;2023-12-20T03:46:03;97281.97;;;3.82;100.00
58295;BME280;45705;55.592;37.460;2023-12-20T03:48:31;97276.31;;;3.83;100.00
58295;BME280;45705;55.592;37.460;2023-12-20T03:50:57;97277.63;;;3.94;100.00
58295;BME280;45705;55.592;37.460;2023-12-20T03:53:23;97269.78;;;3.75;100.00
58295;BME280;45705;55.592;37.460;2023-12-20T03:55:48;97281.69;;;3.83;100.00
58295;BME280;45705;55.592;37.460;2023-12-20T03:58:14;97291.53;;;3.97;100.00
58295;BME280;45705;55.592;37.460;2023-12-20T04:00:40;97285.84;;;3.98;100.00
58295;BME280;45705;55.592;37.460;2023-12-20T04:03:06;97295.28;;;3.78;100.00
58295;BME280;45705;55.592;37.460;2023-12-20T04:05:32;97283.09;;;3.81;100.00
58295;BME280;45705;55.592;37.460;2023-12-20T04:08:00;97294.50;;;3.86;100.00
58295;BME280;45705;55.592;37.460;2023-12-20T04:10:26;97286.78;;;3.93;100.00
58295;BME280;45705;55.592;37.460;2023-12-20T04:12:52;97298.28;;;3.85;100.00
58295;BME280;45705;55.592;37.460;2023-12-20T04:15:18;97306.16;;;3.82;100.00
58295;BME280;45705;55.592;37.460;2023-12-20T04:17:43;97282.69;;;4.05;100.00
58295;BME280;45705;55.592;37.460;2023-12-20T04:20:09;97282.22;;;3.94;100.00
58295;BME280;45705;55.592;37.460;2023-12-20T04:22:35;97298.50;;;3.98;100.00
58295;BME280;45705;55.592;37.460;2023-12-20T04:25:01;97293.13;;;3.98;100.00
58295;BME280;45705;55.592;37.460;2023-12-20T04:27:27;97307.66;;;3.97;100.00
58295;BME280;45705;55.592;37.460;2023-12-20T04:29:53;97309.53;;;3.87;100.00
58295;BME280;45705;55.592;37.460;2023-12-20T04:32:19;97316.09;;;4.12;100.00
58295;BME280;45705;55.592;37.460;2023-12-20T04:34:45;97305.25;;;3.86;100.00
58295;BME280;45705;55.592;37.460;2023-12-20T04:37:12;97311.81;;;4.03;100.00
58295;BME280;45705;55.592;37.460;2023-12-20T04:39:38;97307.22;;;3.72;100.00
58295;BME280;45705;55.592;37.460;2023-12-20T04:42:04;97313.09;;;3.74;100.00
58295;BME280;45705;55.592;37.460;2023-12-20T04:44:29;97313.09;;;3.74;100.00
58295;BME280;45705;55.592;37.460;2023-12-20T04:46:55;97299.41;;;3.84;100.00
58295;BME280;45705;55.592;37.460;2023-12-20T04:49:22;97318.34;;;3.79;100.00
58295;BME280;45705;55.592;37.460;2023-12-20T04:51:47;97314.47;;;3.63;100.00
58295;BME280;45705;55.592;37.460;2023-12-20T04:54:13;97321.44;;;3.64;100.00
58295;BME280;45705;55.592;37.460;2023-12-20T04:56:39;97307.38;;;3.67;100.00
58295;BME280;45705;55.592;37.460;2023-12-20T04:59:04;97314.72;;;3.84;100.00
58295;BME280;45705;55.592;37.460;2023-12-20T05:01:31;97321.97;;;3.74;100.00
58295;BME280;45705;55.592;37.460;2023-12-20T05:03:56;97328.56;;;4.00;100.00
58295;BME280;45705;55.592;37.460;2023-12-20T05:06:22;97330.59;;;3.63;100.00
58295;BME280;45705;55.592;37.460;2023-12-20T05:08:48;97322.41;;;3.68;100.00
58295;BME280;45705;55.592;37.460;2023-12-20T05:11:14;97329.59;;;3.81;100.00
58295;BME280;45705;55.592;37.460;2023-12-20T05:13:40;97336.09;;;3.58;100.00
58295;BME280;45705;55.592;37.460;2023-12-20T05:16:06;97328.13;;;3.75;100.00
58295;BME280;45705;55.592;37.460;2023-12-20T05:18:32;97327.84;;;3.85;100.00
58295;BME280;45705;55.592;37.460;2023-12-20T05:20:58;97332.63;;;3.88;100.00
58295;BME280;45705;55.592;37.460;2023-12-20T05:23:24;97337.66;;;3.81;100.00
58295;BME280;45705;55.592;37.460;2023-12-20T05:25:49;97334.09;;;3.72;100.00
58295;BME280;45705;55.592;37.460;2023-12-20T05:28:15;97322.28;;;3.73;100.00
58295;BME280;45705;55.592;37.460;2023-12-20T05:30:41;97340.91;;;3.69;100.00
58295;BME280;45705;55.592;37.460;2023-12-20T05:33:07;97345.34;;;3.74;100.00
58295;BME280;45705;55.592;37.460;2023-12-20T05:35:32;97342.13;;;3.63;100.00
58295;BME280;45705;55.592;37.460;2023-12-20T05:37:58;97337.44;;;3.69;100.00
58295;BME280;45705;55.592;37.460;2023-12-20T05:40:24;97338.19;;;3.61;100.00
58295;BME280;45705;55.592;37.460;2023-12-20T05:42:49;97338.19;;;3.61;100.00
58295;BME280;45705;55.592;37.460;2023-12-20T05:45:15;97326.94;;;3.36;100.00
58295;BME280;45705;55.592;37.460;2023-12-20T05:47:41;97334.88;;;3.41;100.00
58295;BME280;45705;55.592;37.460;2023-12-20T05:50:07;97331.69;;;3.39;100.00
58295;BME280;45705;55.592;37.460;2023-12-20T05:52:33;97324.00;;;3.24;100.00
58295;BME280;45705;55.592;37.460;2023-12-20T05:54:59;97338.44;;;3.28;100.00
58295;BME280;45705;55.592;37.460;2023-12-20T05:57:27;97336.09;;;3.35;100.00
58295;BME280;45705;55.592;37.460;2023-12-20T05:59:53;97332.25;;;3.50;100.00
58295;BME280;45705;55.592;37.460;2023-12-20T06:02:19;97336.84;;;3.49;100.00
58295;BME280;45705;55.592;37.460;2023-12-20T06:04:45;97342.22;;;3.49;100.00
58295;BME280;45705;55.592;37.460;2023-12-20T06:07:12;97332.69;;;3.43;100.00
58295;BME280;45705;55.592;37.460;2023-12-20T06:09:38;97347.69;;;3.67;100.00
58295;BME280;45705;55.592;37.460;2023-12-20T06:12:04;97348.97;;;3.69;100.00
58295;BME280;45705;55.592;37.460;2023-12-20T06:14:30;97354.75;;;3.85;100.00
58295;BME280;45705;55.592;37.460;2023-12-20T06:16:57;97346.09;;;3.66;100.00
58295;BME280;45705;55.592;37.460;2023-12-20T06:19:23;97365.38;;;3.90;100.00
58295;BME280;45705;55.592;37.460;2023-12-20T06:21:48;97368.56;;;3.70;100.00
58295;BME280;45705;55.592;37.460;2023-12-20T06:24:14;97368.34;;;3.80;100.00
58295;BME280;45705;55.592;37.460;2023-12-20T06:26:40;97369.34;;;3.93;100.00
58295;BME280;45705;55.592;37.460;2023-12-20T06:29:06;97372.47;;;3.86;100.00
58295;BME280;45705;55.592;37.460;2023-12-20T06:31:32;97364.88;;;3.88;100.00
58295;BME280;45705;55.592;37.460;2023-12-20T06:33:58;97372.31;;;3.91;100.00
58295;BME280;45705;55.592;37.460;2023-12-20T06:36:26;97356.06;;;3.97;100.00
58295;BME280;45705;55.592;37.460;2023-12-20T06:38:52;97358.00;;;4.05;100.00
58295;BME280;45705;55.592;37.460;2023-12-20T06:41:18;97364.00;;;4.02;100.00
58295;BME280;45705;55.592;37.460;2023-12-20T06:43:44;97361.75;;;3.95;100.00
58295;BME280;45705;55.592;37.460;2023-12-20T06:46:09;97352.91;;;3.94;100.00
58295;BME280;45705;55.592;37.460;2023-12-20T06:48:35;97347.06;;;4.01;100.00
58295;BME280;45705;55.592;37.460;2023-12-20T06:51:01;97354.91;;;3.89;100.00
58295;BME280;45705;55.592;37.460;2023-12-20T06:53:27;97358.75;;;3.97;100.00
58295;BME280;45705;55.592;37.460;2023-12-20T06:55:53;97351.06;;;4.04;100.00
58295;BME280;45705;55.592;37.460;2023-12-20T06:58:22;97350.41;;;4.07;100.00
58295;BME280;45705;55.592;37.460;2023-12-20T07:00:48;97358.34;;;4.12;100.00
58295;BME280;45705;55.592;37.460;2023-12-20T07:03:14;97348.84;;;4.06;100.00
58295;BME280;45705;55.592;37.460;2023-12-20T07:05:39;97360.28;;;4.20;100.00
58295;BME280;45705;55.592;37.460;2023-12-20T07:08:06;97362.72;;;4.30;100.00
58295;BME280;45705;55.592;37.460;2023-12-20T07:10:32;97364.75;;;4.33;100.00
58295;BME280;45705;55.592;37.460;2023-12-20T07:12:58;97358.13;;;4.40;100.00
58295;BME280;45705;55.592;37.460;2023-12-20T07:15:24;97359.38;;;4.33;100.00
58295;BME280;45705;55.592;37.460;2023-12-20T07:17:50;97363.25;;;4.10;100.00
58295;BME280;45705;55.592;37.460;2023-12-20T07:20:16;97358.13;;;4.40;100.00
58295;BME280;45705;55.592;37.460;2023-12-20T07:22:41;97364.41;;;4.26;100.00
58295;BME280;45705;55.592;37.460;2023-12-20T07:25:08;97375.81;;;4.23;100.00
58295;BME280;45705;55.592;37.460;2023-12-20T07:27:34;97377.09;;;4.26;100.00
58295;BME280;45705;55.592;37.460;2023-12-20T07:29:59;97382.75;;;4.24;100.00
58295;BME280;45705;55.592;37.460;2023-12-20T07:32:25;97383.13;;;4.31;100.00
58295;BME280;45705;55.592;37.460;2023-12-20T07:34:51;97381.69;;;4.34;100.00
58295;BME280;45705;55.592;37.460;2023-12-20T07:37:17;97388.16;;;4.24;100.00
58295;BME280;45705;55.592;37.460;2023-12-20T07:39:43;97388.00;;;4.21;100.00
58295;BME280;45705;55.592;37.460;2023-12-20T07:42:08;97396.63;;;4.49;100.00
58295;BME280;45705;55.592;37.460;2023-12-20T07:44:34;97398.91;;;4.56;100.00
58295;BME280;45705;55.592;37.460;2023-12-20T07:47:02;97397.28;;;4.54;100.00
58295;BME280;45705;55.592;37.460;2023-12-20T07:49:27;97392.88;;;4.59;100.00
58295;BME280;45705;55.592;37.460;2023-12-20T07:51:53;97394.91;;;4.53;100.00
58295;BME280;45705;55.592;37.460;2023-12-20T07:54:19;97398.06;;;4.55;100.00
58295;BME280;45705;55.592;37.460;2023-12-20T07:56:46;97403.41;;;4.38;100.00
58295;BME280;45705;55.592;37.460;2023-12-20T07:59:12;97400.22;;;4.36;100.00
58295;BME280;45705;55.592;37.460;2023-12-20T08:01:38;97400.22;;;4.36;100.00
58295;BME280;45705;55.592;37.460;2023-12-20T08:04:04;97392.38;;;4.48;100.00
58295;BME280;45705;55.592;37.460;2023-12-20T08:06:30;97392.22;;;4.53;100.00
58295;BME280;45705;55.592;37.460;2023-12-20T08:08:55;97393.34;;;4.52;100.00
58295;BME280;45705;55.592;37.460;2023-12-20T08:11:21;97390.81;;;4.56;100.00
58295;BME280;45705;55.592;37.460;2023-12-20T08:13:47;97390.78;;;4.47;100.00
58295;BME280;45705;55.592;37.460;2023-12-20T08:16:13;97388.44;;;4.54;100.00
58295;BME280;45705;55.592;37.460;2023-12-20T08:18:39;97396.16;;;4.47;100.00
58295;BME280;45705;55.592;37.460;2023-12-20T08:21:05;97396.81;;;4.61;100.00
58295;BME280;45705;55.592;37.460;2023-12-20T08:23:33;97385.88;;;4.49;100.00
58295;BME280;45705;55.592;37.460;2023-12-20T08:26:07;97381.81;;;4.69;100.00
58295;BME280;45705;55.592;37.460;2023-12-20T08:28:33;97386.84;;;4.53;100.00
58295;BME280;45705;55.592;37.460;2023-12-20T08:31:00;97371.16;;;4.55;100.00
58295;BME280;45705;55.592;37.460;2023-12-20T08:33:26;97378.16;;;4.65;100.00
58295;BME280;45705;55.592;37.460;2023-12-20T08:35:52;97369.28;;;4.64;100.00
58295;BME280;45705;55.592;37.460;2023-12-20T08:38:17;97374.03;;;4.50;100.00
58295;BME280;45705;55.592;37.460;2023-12-20T08:40:44;97364.38;;;4.58;100.00
58295;BME280;45705;55.592;37.460;2023-12-20T08:43:10;97369.06;;;4.34;100.00
58295;BME280;45705;55.592;37.460;2023-12-20T08:45:37;97369.28;;;4.64;100.00
58295;BME280;45705;55.592;37.460;2023-12-20T08:48:04;97372.78;;;4.65;100.00
58295;BME280;45705;55.592;37.460;2023-12-20T08:50:30;97366.13;;;4.62;100.00
58295;BME280;45705;55.592;37.460;2023-12-20T08:52:56;97375.34;;;4.79;100.00
58295;BME280;45705;55.592;37.460;2023-12-20T08:55:22;97378.66;;;4.76;100.00
58295;BME280;45705;55.592;37.460;2023-12-20T08:57:48;97354.84;;;4.51;100.00
58295;BME280;45705;55.592;37.460;2023-12-20T09:00:14;97374.34;;;4.57;100.00
58295;BME280;45705;55.592;37.460;2023-12-20T09:02:41;97378.91;;;4.48;100.00
58295;BME280;45705;55.592;37.460;2023-12-20T09:05:07;97381.63;;;4.48;100.00
58295;BME280;45705;55.592;37.460;2023-12-20T09:07:33;97385.22;;;4.43;100.00
58295;BME280;45705;55.592;37.460;2023-12-20T09:09:58;97388.22;;;4.42;100.00
58295;BME280;45705;55.592;37.460;2023-12-20T09:12:24;97379.00;;;4.34;100.00
58295;BME280;45705;55.592;37.460;2023-12-20T09:14:51;97379.72;;;4.57;100.00
58295;BME280;45705;55.592;37.460;2023-12-20T09:17:18;97381.66;;;4.65;100.00
58295;BME280;45705;55.592;37.460;2023-12-20T09:19:45;97383.22;;;4.66;100.00
58295;BME280;45705;55.592;37.460;2023-12-20T09:22:11;97374.09;;;4.85;100.00
58295;BME280;45705;55.592;37.460;2023-12-20T09:24:37;97377.53;;;4.68;100.00
58295;BME280;45705;55.592;37.460;2023-12-20T09:27:06;97365.50;;;4.74;100.00
58295;BME280;45705;55.592;37.460;2023-12-20T09:29:32;97362.31;;;4.63;100.00
58295;BME280;45705;55.592;37.460;2023-12-20T09:31:57;97356.63;;;4.65;100.00
58295;BME280;45705;55.592;37.460;2023-12-20T09:34:24;97353.34;;;4.85;100.00
58295;BME280;45705;55.592;37.460;2023-12-20T09:36:51;97364.56;;;4.79;100.00
58295;BME280;45705;55.592;37.460;2023-12-20T09:39:18;97360.31;;;4.78;100.00
58295;BME280;45705;55.592;37.460;2023-12-20T09:42:06;97351.53;;;4.63;100.00
58295;BME280;45705;55.592;37.460;2023-12-20T09:44:33;97353.00;;;4.69;100.00
58295;BME280;45705;55.592;37.460;2023-12-20T09:47:03;97349.50;;;4.60;100.00
58295;BME280;45705;55.592;37.460;2023-12-20T09:49:30;97359.34;;;4.82;100.00
58295;BME280;45705;55.592;37.460;2023-12-20T09:51:56;97356.63;;;4.56;100.00
58295;BME280;45705;55.592;37.460;2023-12-20T09:54:23;97356.66;;;4.82;100.00
58295;BME280;45705;55.592;37.460;2023-12-20T09:56:49;97363.94;;;4.82;100.00
58295;BME280;45705;55.592;37.460;2023-12-20T09:59:15;97355.69;;;4.69;100.00
58295;BME280;45705;55.592;37.460;2023-12-20T10:01:42;97360.13;;;4.65;100.00
58295;BME280;45705;55.592;37.460;2023-12-20T10:04:09;97369.16;;;4.78;100.00
58295;BME280;45705;55.592;37.460;2023-12-20T10:06:41;97365.69;;;4.78;100.00
58295;BME280;45705;55.592;37.460;2023-12-20T10:09:11;97360.19;;;5.00;100.00
58295;BME280;45705;55.592;37.460;2023-12-20T10:11:38;97349.84;;;4.76;100.00
58295;BME280;45705;55.592;37.460;2023-12-20T10:14:08;97351.56;;;4.81;100.00
58295;BME280;45705;55.592;37.460;2023-12-20T10:16:36;97369.81;;;4.75;100.00
58295;BME280;45705;55.592;37.460;2023-12-20T10:19:02;97360.16;;;4.83;100.00
58295;BME280;45705;55.592;37.460;2023-12-20T10:21:28;97369.81;;;4.84;100.00
58295;BME280;45705;55.592;37.460;2023-12-20T10:23:57;97370.91;;;4.74;100.00
58295;BME280;45705;55.592;37.460;2023-12-20T10:26:24;97362.97;;;4.60;100.00
58295;BME280;45705;55.592;37.460;2023-12-20T10:28:55;97350.84;;;4.31;100.00
58295;BME280;45705;55.592;37.460;2023-12-20T10:31:28;97368.78;;;4.53;100.00
58295;BME280;45705;55.592;37.460;2023-12-20T10:33:56;97365.72;;;4.38;100.00
58295;BME280;45705;55.592;37.460;2023-12-20T10:36:23;97360.09;;;4.48;100.00
58295;BME280;45705;55.592;37.460;2023-12-20T10:38:50;97360.09;;;4.48;100.00
58295;BME280;45705;55.592;37.460;2023-12-20T10:41:27;97350.47;;;4.24;100.00
58295;BME280;45705;55.592;37.460;2023-12-20T10:43:59;97368.28;;;4.43;100.00
58295;BME280;45705;55.592;37.460;2023-12-20T10:46:27;97358.84;;;4.63;100.00
58295;BME280;45705;55.592;37.460;2023-12-20T10:48:54;97360.94;;;4.83;100.00
58295;BME280;45705;55.592;37.460;2023-12-20T10:51:21;97366.78;;;4.68;100.00
58295;BME280;45705;55.592;37.460;2023-12-20T10:53:48;97361.66;;;4.49;100.00
58295;BME280;45705;55.592;37.460;2023-12-20T10:56:16;97376.59;;;4.72;100.00
58295;BME280;45705;55.592;37.460;2023-12-20T10:58:45;97377.50;;;4.50;100.00
58295;BME280;45705;55.592;37.460;2023-12-20T11:01:16;97394.91;;;4.53;100.00
58295;BME280;45705;55.592;37.460;2023-12-20T11:03:49;97390.09;;;4.81;100.00
58295;BME280;45705;55.592;37.460;2023-12-20T11:06:39;97379.09;;;4.60;100.00
58295;BME280;45705;55.592;37.460;2023-12-20T11:12:20;97384.19;;;4.70;100.00
58295;BME280;45705;55.592;37.460;2023-12-20T11:14:53;97399.38;;;4.66;100.00
58295;BME280;45705;55.592;37.460;2023-12-20T11:17:21;97396.34;;;4.50;100.00
58295;BME280;45705;55.592;37.460;2023-12-20T11:22:20;97392.19;;;4.44;100.00
58295;BME280;45705;55.592;37.460;2023-12-20T11:24:47;97363.69;;;4.34;100.00
58295;BME280;45705;55.592;37.460;2023-12-20T11:27:14;97391.59;;;4.56;100.00
58295;BME280;45705;55.592;37.460;2023-12-20T11:29:40;97387.84;;;4.74;100.00
58295;BME280;45705;55.592;37.460;2023-12-20T11:34:56;97384.31;;;4.57;100.00
58295;BME280;45705;55.592;37.460;2023-12-20T11:37:32;97392.09;;;4.58;100.00
58295;BME280;45705;55.592;37.460;2023-12-20T11:40:02;97389.88;;;4.60;100.00
58295;BME280;45705;55.592;37.460;2023-12-20T11:42:38;97386.56;;;4.81;100.00
58295;BME280;45705;55.592;37.460;2023-12-20T11:45:08;97383.41;;;4.70;100.00
58295;BME280;45705;55.592;37.460;2023-12-20T11:47:34;97385.94;;;4.66;100.00
58295;BME280;45705;55.592;37.460;2023-12-20T11:50:00;97395.31;;;4.78;100.00
58295;BME280;45705;55.592;37.460;2023-12-20T11:52:30;97384.19;;;4.70;100.00
58295;BME280;45705;55.592;37.460;2023-12-20T11:54:57;97384.94;;;4.53;100.00
58295;BME280;45705;55.592;37.460;2023-12-20T11:57:23;97380.97;;;4.51;100.00
58295;BME280;45705;55.592;37.460;2023-12-20T11:59:49;97392.97;;;4.45;100.00
58295;BME280;45705;55.592;37.460;2023-12-20T12:02:14;97391.72;;;4.51;100.00
58295;BME280;45705;55.592;37.460;2023-12-20T12:04:43;97384.88;;;4.36;100.00
58295;BME280;45705;55.592;37.460;2023-12-20T12:07:09;97391.44;;;4.52;100.00
58295;BME280;45705;55.592;37.460;2023-12-20T12:09:35;97396.44;;;4.37;100.00
58295;BME280;45705;55.592;37.460;2023-12-20T12:12:01;97387.91;;;4.34;100.00
58295;BME280;45705;55.592;37.460;2023-12-20T12:14:27;97392.16;;;4.36;100.00
58295;BME280;45705;55.592;37.460;2023-12-20T12:16:53;97401.41;;;4.52;100.00
58295;BME280;45705;55.592;37.460;2023-12-20T12:19:22;97400.94;;;4.50;100.00
58295;BME280;45705;55.592;37.460;2023-12-20T12:22:08;97391.38;;;4.44;100.00
58295;BME280;45705;55.592;37.460;2023-12-20T12:24:36;97400.09;;;4.41;100.00
58295;BME280;45705;55.592;37.460;2023-12-20T12:27:05;97410.47;;;4.25;100.00
58295;BME280;45705;55.592;37.460;2023-12-20T12:29:31;97406.75;;;4.43;100.00
58295;BME280;45705;55.592;37.460;2023-12-20T12:31:57;97402.44;;;4.33;100.00
58295;BME280;45705;55.592;37.460;2023-12-20T12:34:23;97403.75;;;4.45;100.00
58295;BME280;45705;55.592;37.460;2023-12-20T12:36:49;97403.06;;;4.30;100.00
58295;BME280;45705;55.592;37.460;2023-12-20T12:39:17;97410.97;;;4.36;100.00
58295;BME280;45705;55.592;37.460;2023-12-20T12:41:43;97412.34;;;4.24;100.00
58295;BME280;45705;55.592;37.460;2023-12-20T12:44:08;97411.97;;;4.08;100.00
58295;BME280;45705;55.592;37.460;2023-12-20T12:46:35;97407.47;;;4.26;100.00
58295;BME280;45705;55.592;37.460;2023-12-20T12:49:00;97411.75;;;4.27;100.00
58295;BME280;45705;55.592;37.460;2023-12-20T12:51:26;97403.06;;;4.30;100.00
58295;BME280;45705;55.592;37.460;2023-12-20T12:53:53;97405.72;;;4.22;100.00
58295;BME280;45705;55.592;37.460;2023-12-20T12:56:19;97412.16;;;4.12;100.00